createdAt,value
2019-01-18T00:00:11.070Z,18.33
2019-01-18T00:02:38.487Z,17.30
2019-01-18T00:05:05.895Z,19.17
2019-01-18T00:07:33.309Z,22.13
2019-01-18T00:10:00.734Z,18.67
2019-01-18T00:12:28.141Z,16.93
2019-01-18T00:14:55.578Z,21.17
2019-01-18T00:17:22.984Z,18.97
2019-01-18T00:19:50.386Z,22.43
2019-01-18T00:22:17.821Z,21.30
2019-01-18T00:24:45.235Z,20.63
2019-01-18T00:27:12.656Z,24.20
2019-01-18T00:29:40.081Z,29.80
2019-01-18T00:32:07.507Z,27.87
2019-01-18T00:34:34.897Z,26.30
2019-01-18T00:37:02.325Z,30.63
2019-01-18T00:39:29.737Z,28.23
2019-01-18T00:41:57.174Z,31.23
2019-01-18T00:44:24.570Z,32.33
2019-01-18T00:46:52.008Z,26.63
2019-01-18T00:49:19.428Z,34.90
2019-01-18T00:51:46.832Z,33.10
2019-01-18T00:54:14.282Z,30.33
2019-01-18T00:56:41.692Z,38.53
2019-01-18T00:59:09.097Z,35.03
2019-01-18T01:01:36.519Z,38.10
2019-01-18T01:04:03.926Z,33.03
2019-01-18T01:06:31.357Z,36.13
2019-01-18T01:08:58.755Z,37.00
2019-01-18T01:11:26.181Z,30.43
2019-01-18T01:13:53.609Z,41.03
2019-01-18T01:16:21.017Z,36.87
2019-01-18T01:18:48.464Z,31.60
2019-01-18T01:21:15.868Z,34.43
2019-01-18T01:23:43.271Z,30.57
2019-01-18T01:26:10.705Z,39.63
2019-01-18T01:28:38.144Z,35.43
2019-01-18T01:31:05.598Z,38.27
2019-01-18T01:33:32.954Z,34.47
2019-01-18T01:36:00.378Z,33.00
2019-01-18T01:38:27.787Z,35.90
2019-01-18T01:40:55.207Z,28.67
2019-01-18T01:43:22.609Z,33.67
2019-01-18T01:45:50.031Z,38.30
2019-01-18T01:48:17.431Z,34.37
2019-01-18T01:50:44.841Z,36.43
2019-01-18T01:53:12.276Z,30.67
2019-01-18T01:55:39.696Z,37.87
2019-01-18T01:58:07.098Z,30.87
2019-01-18T02:00:34.565Z,32.13
2019-01-18T02:03:02.010Z,29.67
2019-01-18T02:05:29.434Z,34.93
2019-01-18T02:07:56.829Z,32.77
2019-01-18T02:10:24.260Z,33.17
2019-01-18T02:12:51.674Z,36.13
2019-01-18T02:15:19.095Z,25.87
2019-01-18T02:17:46.511Z,34.27
2019-01-18T02:20:13.933Z,32.03
2019-01-18T02:22:41.342Z,31.90
2019-01-18T02:25:08.793Z,25.43
2019-01-18T02:27:36.184Z,27.33
2019-01-18T02:30:03.609Z,31.30
2019-01-18T02:32:31.006Z,28.70
2019-01-18T02:34:58.428Z,28.93
2019-01-18T02:37:25.832Z,28.13
2019-01-18T02:39:53.249Z,24.93
2019-01-18T02:42:20.664Z,27.80
2019-01-18T02:44:48.092Z,28.13
2019-01-18T02:47:15.492Z,26.50
2019-01-18T02:49:42.886Z,28.53
2019-01-18T02:52:10.307Z,26.33
2019-01-18T02:54:37.709Z,29.43
2019-01-18T02:57:05.150Z,32.90
2019-01-18T02:59:32.548Z,30.70
2019-01-18T03:01:59.983Z,27.47
2019-01-18T03:04:27.392Z,25.37
2019-01-18T03:06:54.811Z,24.90
2019-01-18T03:09:22.259Z,24.33
2019-01-18T03:11:49.656Z,29.80
2019-01-18T03:14:17.057Z,27.83
2019-01-18T03:16:44.493Z,30.47
2019-01-18T03:19:11.892Z,27.23
2019-01-18T03:21:39.299Z,28.87
2019-01-18T03:24:06.725Z,31.97
2019-01-18T03:26:34.179Z,29.80
2019-01-18T03:29:01.547Z,28.53
2019-01-18T03:31:28.965Z,29.30
2019-01-18T03:33:56.462Z,35.03
2019-01-18T03:36:23.793Z,34.53
2019-01-18T03:38:51.226Z,29.77
2019-01-18T03:41:18.628Z,27.30
2019-01-18T03:43:46.055Z,21.87
2019-01-18T03:46:13.476Z,30.70
2019-01-18T03:48:40.904Z,25.90
2019-01-18T03:51:08.314Z,25.53
2019-01-18T03:53:35.744Z,29.87
2019-01-18T03:56:03.176Z,29.13
2019-01-18T03:58:30.565Z,28.73
2019-01-18T04:00:57.989Z,30.67
2019-01-18T04:03:25.411Z,29.00
2019-01-18T04:05:52.828Z,28.17
2019-01-18T04:08:20.228Z,32.37
2019-01-18T04:10:47.674Z,29.83
2019-01-18T04:13:15.121Z,32.17
2019-01-18T04:15:42.538Z,31.60
2019-01-18T04:18:09.974Z,33.27
2019-01-18T04:20:37.410Z,33.57
2019-01-18T04:23:04.811Z,27.03
2019-01-18T04:25:32.207Z,38.93
2019-01-18T04:27:59.642Z,30.00
2019-01-18T04:30:33.401Z,33.30
2019-01-18T04:32:54.590Z,36.13
2019-01-18T04:35:22.004Z,33.23
2019-01-18T04:37:49.454Z,36.10
2019-01-18T04:40:19.674Z,35.93
2019-01-18T04:42:47.085Z,36.50
2019-01-18T04:45:14.522Z,40.47
2019-01-18T04:47:41.928Z,35.53
2019-01-18T04:50:12.332Z,33.17
2019-01-18T04:52:39.764Z,38.57
2019-01-18T04:55:07.165Z,38.87
2019-01-18T04:57:34.583Z,44.13
2019-01-18T05:00:01.996Z,35.23
2019-01-18T05:02:29.413Z,33.53
2019-01-18T05:04:56.858Z,38.80
2019-01-18T05:07:24.290Z,35.50
2019-01-18T05:09:51.684Z,35.07
2019-01-18T05:12:19.144Z,34.53
2019-01-18T05:14:46.506Z,44.70
2019-01-18T05:17:13.938Z,40.07
2019-01-18T05:19:41.603Z,36.47
2019-01-18T05:22:08.754Z,50.13
2019-01-18T05:24:36.197Z,34.60
2019-01-18T05:27:03.615Z,36.07
2019-01-18T05:29:31.030Z,37.70
2019-01-18T05:31:58.455Z,45.50
2019-01-18T05:34:25.861Z,41.10
2019-01-18T05:36:53.281Z,39.30
2019-01-18T05:39:20.709Z,46.67
2019-01-18T05:41:48.115Z,32.87
2019-01-18T05:44:15.519Z,38.97
2019-01-18T05:46:42.943Z,46.53
2019-01-18T05:49:10.363Z,50.17
2019-01-18T05:51:37.791Z,37.17
2019-01-18T05:54:05.206Z,43.50
2019-01-18T05:56:32.625Z,47.60
2019-01-18T05:59:00.052Z,41.57
2019-01-18T06:01:27.642Z,49.10
2019-01-18T06:03:54.894Z,40.23
2019-01-18T06:06:22.331Z,40.20
2019-01-18T06:08:49.743Z,51.50
2019-01-18T06:11:17.180Z,51.83
2019-01-18T06:13:44.594Z,39.03
2019-01-18T06:16:12.024Z,45.23
2019-01-18T06:18:39.417Z,50.93
2019-01-18T06:21:06.871Z,40.20
2019-01-18T06:23:34.279Z,52.13
2019-01-18T06:26:01.686Z,42.00
2019-01-18T06:28:29.126Z,40.90
2019-01-18T06:31:01.719Z,37.53
2019-01-18T06:33:23.960Z,50.13
2019-01-18T06:35:51.364Z,49.43
2019-01-18T06:38:18.776Z,47.40
2019-01-18T06:40:46.186Z,53.63
2019-01-18T06:43:13.603Z,49.57
2019-01-18T06:45:41.032Z,48.57
2019-01-18T06:48:08.433Z,44.37
2019-01-18T06:50:35.869Z,42.27
2019-01-18T06:53:03.281Z,63.43
2019-01-18T06:55:30.705Z,44.87
2019-01-18T06:57:58.133Z,58.37
2019-01-18T07:00:25.537Z,56.27
2019-01-18T07:02:52.968Z,47.83
2019-01-18T07:05:20.406Z,55.00
2019-01-18T07:07:47.853Z,49.07
2019-01-18T07:10:20.852Z,42.40
2019-01-18T07:12:45.377Z,48.23
2019-01-18T07:15:12.788Z,44.93
2019-01-18T07:17:40.213Z,50.27
2019-01-18T07:20:07.622Z,52.13
2019-01-18T07:22:35.052Z,41.10
2019-01-18T07:25:02.531Z,55.37
2019-01-18T07:27:29.943Z,66.37
2019-01-18T07:29:57.401Z,44.67
2019-01-18T07:32:24.818Z,43.67
2019-01-18T07:34:52.250Z,50.90
2019-01-18T07:37:19.651Z,50.20
2019-01-18T07:39:47.130Z,43.50
2019-01-18T07:42:14.573Z,44.33
2019-01-18T07:44:42.002Z,41.47
2019-01-18T07:47:09.417Z,43.57
2019-01-18T07:49:36.845Z,59.33
2019-01-18T07:52:04.279Z,48.67
2019-01-18T07:54:31.702Z,67.67
2019-01-18T07:56:59.128Z,62.23
2019-01-18T07:59:26.524Z,47.07
2019-01-18T08:01:53.968Z,36.27
2019-01-18T08:04:21.433Z,49.90
2019-01-18T08:06:48.843Z,63.37
2019-01-18T08:09:16.300Z,61.57
2019-01-18T08:11:43.730Z,66.20
2019-01-18T08:14:11.142Z,56.27
2019-01-18T08:16:38.532Z,71.30
2019-01-18T08:19:05.980Z,43.03
2019-01-18T08:21:33.413Z,37.83
2019-01-18T08:24:00.841Z,42.83
2019-01-18T08:26:28.250Z,45.07
2019-01-18T08:28:55.723Z,53.27
2019-01-18T08:31:28.671Z,38.97
2019-01-18T08:33:50.544Z,40.67
2019-01-18T08:36:17.949Z,39.33
2019-01-18T08:38:45.364Z,57.33
2019-01-18T08:41:12.768Z,46.20
2019-01-18T08:43:40.195Z,47.83
2019-01-18T08:46:07.616Z,48.20
2019-01-18T08:48:35.032Z,39.93
2019-01-18T08:51:03.866Z,47.47
2019-01-18T08:53:29.927Z,42.80
2019-01-18T08:55:57.363Z,40.77
2019-01-18T08:58:24.775Z,42.33
2019-01-18T09:00:52.219Z,70.07
2019-01-18T09:03:19.638Z,48.60
2019-01-18T09:05:47.057Z,68.70
2019-01-18T09:08:14.502Z,56.80
2019-01-18T09:10:41.886Z,64.97
2019-01-18T09:13:09.291Z,88.67
2019-01-18T09:15:36.731Z,64.17
2019-01-18T09:18:04.131Z,55.57
2019-01-18T09:20:31.549Z,46.73
2019-01-18T09:22:59.002Z,54.23
2019-01-18T09:25:26.456Z,48.07
2019-01-18T09:27:53.865Z,44.80
2019-01-18T09:30:24.284Z,47.43
2019-01-18T09:32:51.660Z,41.10
2019-01-18T09:35:19.061Z,36.70
2019-01-18T09:37:46.499Z,39.20
2019-01-18T09:40:13.911Z,52.10
2019-01-18T09:42:41.335Z,60.23
2019-01-18T09:45:08.743Z,67.50
2019-01-18T09:47:36.184Z,82.47
2019-01-18T09:50:03.596Z,47.33
2019-01-18T09:52:31.023Z,49.17
2019-01-18T09:54:58.418Z,59.40
2019-01-18T09:57:25.846Z,99.80
2019-01-18T09:59:53.259Z,60.50
2019-01-18T10:02:20.661Z,73.87
2019-01-18T10:04:48.101Z,64.63
2019-01-18T10:07:15.511Z,61.40
2019-01-18T10:09:42.952Z,113.87
2019-01-18T10:12:10.362Z,58.77
2019-01-18T10:14:37.771Z,64.37
2019-01-18T10:17:05.250Z,61.60
2019-01-18T10:19:32.643Z,106.97
2019-01-18T10:22:00.067Z,71.57
2019-01-18T10:24:27.485Z,62.10
2019-01-18T10:26:54.927Z,110.67
2019-01-18T10:29:28.020Z,63.70
2019-01-18T10:31:55.871Z,58.03
2019-01-18T10:34:17.164Z,104.17
2019-01-18T10:36:44.607Z,104.83
2019-01-18T10:39:12.011Z,57.80
2019-01-18T10:41:39.445Z,113.80
2019-01-18T10:44:06.843Z,88.43
2019-01-18T10:46:34.281Z,91.10
2019-01-18T10:49:01.707Z,121.37
2019-01-18T10:51:29.111Z,137.27
2019-01-18T10:53:56.527Z,94.37
2019-01-18T10:56:23.953Z,41.90
2019-01-18T10:58:53.952Z,68.00
2019-01-18T11:01:21.348Z,80.30
2019-01-18T11:03:48.756Z,65.97
2019-01-18T11:06:16.229Z,56.23
2019-01-18T11:08:43.605Z,58.93
2019-01-18T11:11:11.022Z,62.47
2019-01-18T11:13:38.452Z,59.43
2019-01-18T11:16:05.953Z,58.17
2019-01-18T11:18:33.378Z,65.17
2019-01-18T11:21:00.839Z,82.80
2019-01-18T11:23:28.230Z,71.50
2019-01-18T11:25:55.667Z,83.70
2019-01-18T11:28:23.076Z,81.40
2019-01-18T11:30:50.510Z,85.83
2019-01-18T11:33:17.939Z,126.37
2019-01-18T11:35:45.355Z,95.03
2019-01-18T11:38:12.819Z,92.83
2019-01-18T11:40:40.328Z,87.10
2019-01-18T11:43:07.790Z,86.90
2019-01-18T11:45:35.188Z,76.43
2019-01-18T11:48:02.610Z,66.60
2019-01-18T11:50:30.022Z,74.23
2019-01-18T11:52:57.440Z,74.57
2019-01-18T11:55:24.869Z,63.43
2019-01-18T11:57:52.266Z,63.87
2019-01-18T12:00:28.548Z,71.03
2019-01-18T12:02:55.939Z,68.17
2019-01-18T12:05:23.343Z,58.57
2019-01-18T12:07:50.773Z,62.17
2019-01-18T12:10:21.323Z,65.07
2019-01-18T12:12:48.753Z,60.40
2019-01-18T12:15:16.150Z,60.40
2019-01-18T12:17:43.749Z,65.93
2019-01-18T12:20:13.940Z,70.87
2019-01-18T12:22:41.344Z,65.13
2019-01-18T12:25:08.765Z,59.13
2019-01-18T12:27:36.171Z,68.50
2019-01-18T12:30:03.607Z,63.77
2019-01-18T12:32:31.013Z,61.60
2019-01-18T12:34:58.455Z,53.77
2019-01-18T12:37:25.863Z,57.00
2019-01-18T12:39:53.265Z,53.23
2019-01-18T12:42:20.682Z,55.43
2019-01-18T12:44:48.096Z,56.87
2019-01-18T12:47:15.516Z,59.30
2019-01-18T12:49:42.917Z,61.37
2019-01-18T12:52:10.340Z,51.17
2019-01-18T12:54:37.821Z,51.87
2019-01-18T12:57:05.191Z,55.57
2019-01-18T12:59:32.583Z,51.53
2019-01-18T13:01:59.997Z,47.43
2019-01-18T13:04:27.404Z,58.00
2019-01-18T13:06:54.826Z,52.17
2019-01-18T13:09:22.235Z,43.27
2019-01-18T13:11:49.656Z,45.60
2019-01-18T13:14:17.069Z,46.77
2019-01-18T13:16:44.487Z,41.80
2019-01-18T13:19:11.940Z,40.67
2019-01-18T13:21:39.368Z,49.40
2019-01-18T13:24:06.775Z,41.67
2019-01-18T13:26:34.184Z,52.93
2019-01-18T13:29:01.609Z,54.17
2019-01-18T13:31:29.008Z,43.53
2019-01-18T13:33:56.427Z,41.13
2019-01-18T13:36:23.819Z,39.67
2019-01-18T13:38:51.239Z,39.07
2019-01-18T13:41:18.669Z,40.63
2019-01-18T13:43:46.094Z,36.23
2019-01-18T13:46:13.503Z,35.10
2019-01-18T13:48:40.929Z,35.17
2019-01-18T13:51:08.327Z,34.87
2019-01-18T13:53:35.758Z,35.23
2019-01-18T13:56:03.163Z,32.10
2019-01-18T13:58:30.561Z,34.03
2019-01-18T14:00:58.002Z,36.33
2019-01-18T14:03:25.435Z,43.67
2019-01-18T14:05:52.839Z,31.73
2019-01-18T14:08:20.282Z,37.30
2019-01-18T14:10:47.706Z,39.37
2019-01-18T14:13:15.095Z,49.27
2019-01-18T14:15:42.652Z,35.90
2019-01-18T14:18:10.048Z,31.23
2019-01-18T14:20:37.464Z,36.23
2019-01-18T14:23:04.869Z,29.83
2019-01-18T14:25:32.290Z,39.03
2019-01-18T14:27:59.677Z,38.13
2019-01-18T14:30:27.101Z,35.40
2019-01-18T14:32:55.624Z,34.57
2019-01-18T14:35:21.906Z,34.77
2019-01-18T14:37:49.337Z,33.13
2019-01-18T14:40:16.738Z,32.37
2019-01-18T14:42:44.174Z,30.23
2019-01-18T14:45:14.209Z,31.83
2019-01-18T14:47:41.642Z,38.87
2019-01-18T14:50:09.149Z,47.43
2019-01-18T14:52:36.557Z,33.40
2019-01-18T14:55:03.961Z,34.23
2019-01-18T14:57:31.375Z,38.30
2019-01-18T14:59:58.778Z,33.07
2019-01-18T15:02:26.197Z,41.40
2019-01-18T15:04:53.608Z,37.20
2019-01-18T15:07:21.046Z,33.20
2019-01-18T15:09:48.441Z,38.77
2019-01-18T15:12:15.993Z,35.93
2019-01-18T15:14:43.377Z,35.27
2019-01-18T15:17:10.807Z,39.33
2019-01-18T15:19:38.202Z,35.30
2019-01-18T15:22:05.630Z,33.27
2019-01-18T15:24:33.049Z,38.23
2019-01-18T15:37:14.738Z,43.50
2019-01-18T15:39:42.148Z,43.30
2019-01-18T15:50:28.805Z,42.20
2019-01-18T15:52:56.226Z,39.70
2019-01-18T15:55:23.647Z,39.93
2019-01-18T15:57:51.049Z,47.50
2019-01-18T16:00:18.474Z,44.37
2019-01-18T16:02:45.875Z,48.63
2019-01-18T16:05:13.313Z,45.37
2019-01-18T16:07:40.729Z,52.67
2019-01-18T16:10:08.130Z,41.00
2019-01-18T16:12:35.566Z,42.93
2019-01-18T16:15:02.994Z,49.03
2019-01-18T16:17:31.668Z,56.57
2019-01-18T16:19:57.863Z,58.53
2019-01-18T16:22:25.321Z,49.37
2019-01-18T16:24:52.727Z,45.13
2019-01-18T16:27:20.144Z,48.73
2019-01-18T16:29:47.551Z,57.87
2019-01-18T16:32:14.985Z,51.90
2019-01-18T16:34:42.382Z,44.90
2019-01-18T16:37:09.818Z,53.83
2019-01-18T16:39:37.226Z,54.97
2019-01-18T16:42:04.655Z,62.53
2019-01-18T16:44:34.903Z,57.57
2019-01-18T16:47:02.362Z,50.80
2019-01-18T16:49:29.763Z,54.50
2019-01-18T16:52:02.822Z,55.30
2019-01-18T16:54:30.269Z,56.70
2019-01-18T16:56:57.670Z,54.83
2019-01-18T16:59:25.061Z,61.50
2019-01-18T17:01:52.497Z,56.55
2019-01-18T17:04:19.971Z,61.50
2019-01-18T17:06:47.409Z,60.17
2019-01-18T17:09:14.811Z,58.03
2019-01-18T17:11:42.265Z,70.07
2019-01-18T17:14:09.675Z,77.60
2019-01-18T17:16:37.087Z,75.23
2019-01-18T17:19:04.524Z,94.17
2019-01-18T17:21:31.933Z,94.97
2019-01-18T17:23:59.369Z,97.70
2019-01-18T17:26:27.622Z,109.13
2019-01-18T17:28:55.066Z,100.43
2019-01-18T17:31:22.480Z,93.33
2019-01-18T17:33:50.168Z,113.23
2019-01-18T17:36:17.614Z,160.00
2019-01-18T17:38:59.857Z,392.80
2019-01-18T17:41:51.545Z,318.07
2019-01-18T17:44:24.884Z,447.90
2019-01-18T17:47:12.980Z,432.40
2019-01-18T17:49:46.073Z,454.37
2019-01-18T17:52:16.024Z,473.20
2019-01-18T17:54:43.447Z,407.80
2019-01-18T17:57:22.777Z,453.53
2019-01-18T18:00:14.735Z,381.10
2019-01-18T18:02:45.086Z,374.53
2019-01-18T18:05:27.154Z,251.53
2019-01-18T18:08:00.618Z,399.43
2019-01-18T18:10:40.076Z,434.13
2019-01-18T18:13:12.993Z,417.40
2019-01-18T18:15:43.307Z,166.60
2019-01-18T18:18:19.352Z,150.13
2019-01-18T18:20:49.353Z,237.30
2019-01-18T18:23:19.803Z,272.80
2019-01-18T18:26:05.522Z,230.20
2019-01-18T18:28:51.729Z,371.00
2019-01-18T18:31:37.334Z,326.13
2019-01-18T18:34:22.420Z,384.53
2019-01-18T18:36:55.972Z,432.30
2019-01-18T18:39:23.395Z,254.40
2019-01-18T18:42:02.767Z,197.70
2019-01-18T18:44:48.475Z,396.07
2019-01-18T18:47:15.903Z,163.77
2019-01-18T18:49:54.910Z,299.67
2019-01-18T18:52:55.282Z,268.23
2019-01-18T18:55:43.709Z,264.00
2019-01-18T18:58:41.232Z,317.77
2019-01-18T19:01:11.478Z,519.33
2019-01-18T19:03:57.505Z,233.37
2019-01-18T19:06:36.356Z,318.00
2019-01-18T19:09:18.597Z,273.73
2019-01-18T19:11:51.755Z,216.83
2019-01-18T19:14:38.344Z,325.27
2019-01-18T19:17:10.094Z,314.33
2019-01-18T19:19:40.092Z,272.87
2019-01-18T19:22:09.922Z,202.03
2019-01-18T19:25:10.452Z,254.33
2019-01-18T19:27:40.480Z,259.17
2019-01-18T19:30:28.563Z,241.70
2019-01-18T19:33:04.746Z,163.87
2019-01-18T19:35:40.348Z,304.53
2019-01-18T19:38:34.533Z,392.80
2019-01-18T19:41:04.725Z,273.97
2019-01-18T19:43:32.180Z,144.03
2019-01-18T19:46:17.571Z,193.10
2019-01-18T19:48:47.717Z,373.97
2019-01-18T19:51:15.146Z,213.77
2019-01-18T19:53:48.343Z,196.77
2019-01-18T19:56:15.778Z,216.03
2019-01-18T19:58:55.071Z,119.57
2019-01-18T20:01:25.232Z,236.60
2019-01-18T20:03:57.911Z,200.07
2019-01-18T20:06:53.132Z,182.40
2019-01-18T20:09:44.560Z,329.17
2019-01-18T20:12:36.376Z,351.23
2019-01-18T20:15:21.908Z,154.50
2019-01-18T20:17:51.903Z,314.07
2019-01-18T20:20:21.882Z,233.20
2019-01-18T20:22:58.255Z,252.40
2019-01-18T20:25:31.817Z,392.97
2019-01-18T20:27:59.224Z,241.20
2019-01-18T20:30:35.128Z,159.93
2019-01-18T20:33:08.177Z,340.87
2019-01-18T20:36:03.293Z,130.80
2019-01-18T20:38:38.932Z,347.17
2019-01-18T20:41:12.062Z,260.47
2019-01-18T20:43:51.679Z,175.47
2019-01-18T20:46:19.149Z,185.77
2019-01-18T20:48:49.334Z,150.27
2019-01-18T20:51:22.003Z,156.67
2019-01-18T20:54:13.968Z,231.10
2019-01-18T20:56:59.168Z,184.83
2019-01-18T20:59:35.554Z,292.87
2019-01-18T21:02:15.260Z,284.57
2019-01-18T21:04:42.706Z,181.17
2019-01-18T21:10:03.972Z,135.10
2019-01-18T21:12:58.057Z,128.27
2019-01-18T21:15:46.617Z,112.57
2019-01-18T21:18:22.386Z,59.93
2019-01-18T21:20:55.291Z,82.53
2019-01-18T21:23:25.688Z,95.03
2019-01-18T21:25:58.825Z,57.53
2019-01-18T21:28:32.081Z,59.00
2019-01-18T21:31:05.030Z,59.17
2019-01-18T21:33:35.527Z,46.73
2019-01-18T21:36:11.513Z,54.70
2019-01-18T21:38:56.709Z,48.47
2019-01-18T21:41:29.696Z,46.73
2019-01-18T21:44:02.953Z,52.37
2019-01-18T21:46:30.409Z,44.20
2019-01-18T21:49:00.664Z,39.70
2019-01-18T21:51:46.377Z,37.87
2019-01-18T21:54:16.390Z,38.60
2019-01-18T21:57:02.066Z,40.80
2019-01-18T21:59:37.966Z,41.63
2019-01-18T22:02:20.436Z,38.40
2019-01-18T22:04:59.743Z,44.33
2019-01-18T22:07:38.985Z,45.13
2019-01-18T22:10:15.418Z,40.17
2019-01-18T22:12:45.738Z,45.70
2019-01-18T22:15:20.104Z,40.53
2019-01-18T22:17:59.223Z,42.87
2019-01-18T22:20:38.053Z,45.17
2019-01-18T22:23:05.490Z,39.73
2019-01-18T22:25:44.700Z,41.50
2019-01-18T22:28:17.833Z,36.80
2019-01-18T22:31:06.238Z,41.57
2019-01-18T22:33:51.990Z,32.80
2019-01-18T22:36:49.866Z,40.20
2019-01-18T22:39:47.394Z,36.70
2019-01-18T22:42:23.701Z,38.33
2019-01-18T22:44:57.057Z,32.40
2019-01-18T22:47:38.974Z,34.17
2019-01-18T22:50:15.555Z,36.80
2019-01-18T22:52:46.065Z,31.63
2019-01-18T22:55:19.432Z,32.80
2019-01-18T22:58:04.981Z,43.20
2019-01-18T23:00:58.963Z,35.20
2019-01-18T23:03:38.340Z,39.83
2019-01-18T23:06:14.496Z,34.37
2019-01-18T23:08:47.148Z,35.27
2019-01-18T23:11:14.546Z,33.47
2019-01-18T23:14:00.528Z,33.40
2019-01-18T23:16:33.900Z,35.23
2019-01-18T23:19:05.426Z,32.27
2019-01-18T23:22:10.003Z,33.20
2019-01-18T23:24:46.069Z,31.50
2019-01-18T23:27:34.601Z,34.97
2019-01-18T23:30:07.665Z,30.00
2019-01-18T23:32:50.800Z,30.27
2019-01-18T23:35:31.449Z,33.37
2019-01-18T23:38:08.256Z,28.60
2019-01-18T23:40:56.017Z,28.00
2019-01-18T23:43:41.282Z,31.07
2019-01-18T23:46:08.686Z,29.13
2019-01-18T23:48:44.860Z,32.97
2019-01-18T23:51:36.054Z,28.77
2019-01-18T23:54:21.334Z,30.37
2019-01-18T23:56:56.951Z,30.17
2019-01-18T23:59:24.419Z,31.97
